Time;durP1;ratioP1;P1;durP2;ratioP2;P2;SDS_P1;SDS_P2;PMS_P1;PMS_P2;Temp;Humidity;BMP_temperature;BMP_pressure;BME280_temperature;BME280_humidity;BME280_pressure;Samples;Min_cycle;Max_cycle;Signal;HPM_P1;HPM_P2
2021/06/01 00:01:09;;;;;;;4.80;3.10;;;;;;;;;;5053334;28;20447;-61
2021/06/01 00:03:36;;;;;;;3.20;2.90;;;;;;;;;;5053283;28;20464;-61
2021/06/01 00:06:04;;;;;;;3.90;3.03;;;;;;;;;;5052877;28;20444;-61
2021/06/01 00:08:31;;;;;;;3.73;2.73;;;;;;;;;;5053191;28;20472;-60
2021/06/01 00:10:57;;;;;;;7.07;3.00;;;;;;;;;;5053201;28;20448;-61
2021/06/01 00:13:24;;;;;;;3.40;3.10;;;;;;;;;;5053303;28;20487;-60
2021/06/01 00:15:51;;;;;;;3.53;2.60;;;;;;;;;;5056148;28;20521;-63
2021/06/01 00:18:18;;;;;;;6.00;4.47;;;;;;;;;;5052811;28;20448;-64
2021/06/01 00:20:44;;;;;;;4.73;4.00;;;;;;;;;;5053096;28;20439;-64
2021/06/01 00:23:13;;;;;;;4.63;3.93;;;;;;;;;;5053947;28;20460;-64
2021/06/01 00:25:39;;;;;;;3.73;3.30;;;;;;;;;;5057270;28;20459;-63
2021/06/01 00:28:06;;;;;;;8.30;3.10;;;;;;;;;;5056818;28;20797;-63
2021/06/01 00:30:33;;;;;;;4.67;2.90;;;;;;;;;;5057144;28;20859;-63
2021/06/01 00:33:00;;;;;;;3.87;2.70;;;;;;;;;;5056585;28;21063;-63
2021/06/01 00:35:26;;;;;;;5.13;3.43;;;;;;;;;;5057122;28;20432;-64
2021/06/01 00:37:53;;;;;;;3.87;3.47;;;;;;;;;;5056767;28;20849;-66
2021/06/01 00:40:21;;;;;;;3.80;3.20;;;;;;;;;;5056735;28;20928;-64
2021/06/01 00:42:48;;;;;;;4.40;2.97;;;;;;;;;;5056829;28;20464;-63
2021/06/01 00:45:17;;;;;;;4.80;3.70;;;;;;;;;;5056532;28;20932;-63
2021/06/01 00:47:44;;;;;;;4.60;3.43;;;;;;;;;;5056787;28;20446;-64
2021/06/01 00:50:11;;;;;;;4.63;3.67;;;;;;;;;;5056397;28;20475;-63
2021/06/01 00:52:38;;;;;;;5.10;3.50;;;;;;;;;;5056364;28;20779;-63
2021/06/01 00:55:05;;;;;;;4.80;4.10;;;;;;;;;;5056657;28;20446;-63
2021/06/01 00:57:34;;;;;;;3.73;3.30;;;;;;;;;;5056329;28;20444;-63
2021/06/01 01:00:00;;;;;;;4.60;3.60;;;;;;;;;;5056715;28;20451;-64
2021/06/01 01:02:27;;;;;;;5.23;4.13;;;;;;;;;;5056548;28;20469;-64
2021/06/01 01:04:55;;;;;;;5.83;3.40;;;;;;;;;;5056700;28;20439;-64
2021/06/01 01:07:34;;;;;;;4.50;4.03;;;;;;;;;;5056624;28;20447;-63
2021/06/01 01:10:01;;;;;;;4.80;3.80;;;;;;;;;;5056537;28;20559;-64
2021/06/01 01:12:30;;;;;;;5.20;4.40;;;;;;;;;;5056411;28;20440;-64
2021/06/01 01:15:01;;;;;;;4.00;3.50;;;;;;;;;;5056100;28;20815;-64
2021/06/01 01:17:34;;;;;;;4.10;3.43;;;;;;;;;;5056107;28;20424;-64
2021/06/01 01:20:07;;;;;;;4.77;3.73;;;;;;;;;;5056371;28;20439;-64
2021/06/01 01:22:35;;;;;;;4.10;3.60;;;;;;;;;;5056230;28;20451;-64
2021/06/01 01:25:08;;;;;;;7.30;4.10;;;;;;;;;;5056086;28;20458;-64
2021/06/01 01:27:37;;;;;;;4.20;3.80;;;;;;;;;;5056243;28;20429;-63
2021/06/01 01:30:07;;;;;;;8.07;3.83;;;;;;;;;;5055900;28;20978;-63
2021/06/01 01:32:35;;;;;;;8.83;4.30;;;;;;;;;;5055762;28;21009;-63
2021/06/01 01:35:05;;;;;;;5.63;3.77;;;;;;;;;;5055672;28;20452;-63
2021/06/01 01:37:33;;;;;;;4.07;3.60;;;;;;;;;;5056093;28;20814;-63
2021/06/01 01:40:00;;;;;;;4.27;3.50;;;;;;;;;;5055637;28;20471;-64
2021/06/01 01:42:30;;;;;;;5.27;3.60;;;;;;;;;;5055811;28;20848;-64
2021/06/01 01:44:57;;;;;;;4.50;3.80;;;;;;;;;;5055663;28;20455;-64
2021/06/01 01:50:11;;;;;;;5.63;4.17;;;;;;;;;;5055817;28;20447;-64
2021/06/01 01:52:39;;;;;;;4.43;3.50;;;;;;;;;;5055915;28;20584;-64
2021/06/01 01:55:07;;;;;;;5.47;4.53;;;;;;;;;;5055595;28;20444;-64
2021/06/01 01:57:35;;;;;;;8.27;4.87;;;;;;;;;;5055211;28;20936;-63
2021/06/01 02:00:02;;;;;;;6.33;3.90;;;;;;;;;;5055467;28;20447;-63
2021/06/01 02:02:29;;;;;;;7.30;4.30;;;;;;;;;;5055752;28;20444;-64
2021/06/01 02:04:56;;;;;;;6.07;4.20;;;;;;;;;;5055305;28;20452;-64
2021/06/01 02:07:24;;;;;;;4.00;3.60;;;;;;;;;;5054922;28;20452;-64
2021/06/01 02:09:51;;;;;;;7.67;3.90;;;;;;;;;;5055157;28;20471;-64
2021/06/01 02:12:18;;;;;;;4.07;3.67;;;;;;;;;;5055170;28;20448;-64
2021/06/01 02:14:44;;;;;;;4.67;3.60;;;;;;;;;;5056116;28;20560;-64
2021/06/01 02:17:11;;;;;;;5.60;4.00;;;;;;;;;;5055137;28;20447;-64
2021/06/01 02:19:38;;;;;;;4.17;3.77;;;;;;;;;;5055102;28;20444;-64
2021/06/01 02:22:25;;;;;;;4.10;3.70;;;;;;;;;;5055098;28;20459;-63
2021/06/01 02:24:56;;;;;;;4.47;4.00;;;;;;;;;;5054706;28;20826;-64
2021/06/01 02:27:25;;;;;;;5.73;3.73;;;;;;;;;;5054672;28;20436;-63
2021/06/01 02:30:01;;;;;;;6.50;4.10;;;;;;;;;;5054852;28;20480;-63
2021/06/01 02:32:31;;;;;;;5.67;4.30;;;;;;;;;;5055094;28;20820;-63
2021/06/01 02:35:01;;;;;;;5.67;3.90;;;;;;;;;;5095631;22;20503;-62
2021/06/01 02:37:28;;;;;;;5.30;4.03;;;;;;;;;;5074729;28;20446;-62
2021/06/01 02:39:57;;;;;;;4.82;3.53;;;;;;;;;;5074754;28;20435;-61
2021/06/01 02:42:24;;;;;;;4.75;4.10;;;;;;;;;;5074326;28;20695;-61
2021/06/01 02:44:51;;;;;;;4.33;3.93;;;;;;;;;;5074557;28;20220;-62
2021/06/01 02:47:18;;;;;;;4.97;3.80;;;;;;;;;;5073109;28;20526;-61
2021/06/01 02:49:46;;;;;;;5.45;4.07;;;;;;;;;;5074274;28;20529;-62
2021/06/01 02:52:14;;;;;;;5.07;3.90;;;;;;;;;;5074626;28;20200;-62
2021/06/01 02:54:40;;;;;;;4.40;3.70;;;;;;;;;;5074480;28;20463;-62
2021/06/01 02:57:09;;;;;;;4.80;3.80;;;;;;;;;;5074374;28;20447;-62
2021/06/01 02:59:38;;;;;;;6.30;4.13;;;;;;;;;;5074351;28;20439;-61
2021/06/01 03:02:05;;;;;;;8.83;4.27;;;;;;;;;;5074238;28;20439;-62
2021/06/01 03:04:32;;;;;;;4.90;3.73;;;;;;;;;;5074237;28;20520;-61
2021/06/01 03:07:00;;;;;;;4.28;3.88;;;;;;;;;;5073999;28;20439;-62
2021/06/01 03:09:26;;;;;;;5.40;4.17;;;;;;;;;;5074123;28;20270;-61
2021/06/01 03:11:53;;;;;;;4.22;3.83;;;;;;;;;;5075160;28;20451;-63
2021/06/01 03:14:22;;;;;;;5.53;5.03;;;;;;;;;;5075795;28;20235;-63
2021/06/01 03:16:48;;;;;;;4.10;3.70;;;;;;;;;;5074767;28;20501;-62
2021/06/01 03:19:15;;;;;;;5.10;3.97;;;;;;;;;;5074856;28;20505;-61
2021/06/01 03:21:42;;;;;;;4.93;3.97;;;;;;;;;;5075232;28;20447;-62
2021/06/01 03:24:09;;;;;;;5.73;3.87;;;;;;;;;;5074603;28;20471;-62
2021/06/01 03:26:36;;;;;;;5.87;4.37;;;;;;;;;;5073604;28;20923;-62
2021/06/01 03:29:03;;;;;;;4.80;4.07;;;;;;;;;;5073600;28;20471;-62
2021/06/01 03:31:32;;;;;;;5.57;4.05;;;;;;;;;;5073651;28;20443;-62
2021/06/01 03:33:59;;;;;;;5.37;4.57;;;;;;;;;;5073139;28;20315;-62
2021/06/01 03:36:25;;;;;;;5.50;4.00;;;;;;;;;;5073352;28;20485;-62
2021/06/01 03:38:52;;;;;;;8.03;4.97;;;;;;;;;;5073307;28;20201;-62
2021/06/01 03:41:19;;;;;;;4.10;3.40;;;;;;;;;;5073598;28;20436;-61
2021/06/01 03:43:46;;;;;;;5.33;3.70;;;;;;;;;;5073440;28;20581;-62
2021/06/01 03:46:13;;;;;;;4.30;3.40;;;;;;;;;;5073478;28;20794;-62
2021/06/01 03:48:41;;;;;;;5.25;3.30;;;;;;;;;;5073024;28;20201;-61
2021/06/01 03:51:08;;;;;;;3.65;3.35;;;;;;;;;;5073373;28;20615;-62
2021/06/01 03:53:34;;;;;;;5.40;4.03;;;;;;;;;;5072923;28;20233;-62
2021/06/01 03:56:01;;;;;;;3.93;3.50;;;;;;;;;;5073324;28;20497;-62
2021/06/01 03:58:28;;;;;;;6.40;3.90;;;;;;;;;;5072952;28;20444;-62
2021/06/01 04:00:55;;;;;;;3.93;3.20;;;;;;;;;;5073271;28;20477;-62
2021/06/01 04:03:21;;;;;;;4.30;3.17;;;;;;;;;;5095386;22;20474;-61
2021/06/01 04:08:10;;;;;;;4.83;3.37;;;;;;;;;;5111795;27;20544;-60
2021/06/01 04:10:37;;;;;;;4.40;3.30;;;;;;;;;;5111219;28;20461;-61
2021/06/01 04:13:03;;;;;;;5.33;3.77;;;;;;;;;;5110980;28;20941;-61
2021/06/01 04:15:30;;;;;;;3.83;3.23;;;;;;;;;;5111210;28;20534;-61
2021/06/01 04:17:57;;;;;;;6.70;3.37;;;;;;;;;;5110738;28;20982;-61
2021/06/01 04:20:25;;;;;;;5.90;3.70;;;;;;;;;;5110990;28;20441;-61
2021/06/01 04:22:51;;;;;;;4.53;3.03;;;;;;;;;;5111943;28;20475;-60
2021/06/01 04:25:19;;;;;;;4.50;3.57;;;;;;;;;;5110589;28;20516;-60
2021/06/01 04:27:46;;;;;;;3.10;2.80;;;;;;;;;;5110440;28;20817;-61
2021/06/01 04:30:14;;;;;;;4.07;3.60;;;;;;;;;;5110933;28;20441;-60
2021/06/01 04:32:41;;;;;;;3.80;3.07;;;;;;;;;;5111254;28;20533;-61
2021/06/01 04:35:08;;;;;;;5.90;4.30;;;;;;;;;;5119705;22;20461;-62
2021/06/01 04:37:35;;;;;;;3.20;3.00;;;;;;;;;;5049964;28;20810;-63
2021/06/01 04:40:01;;;;;;;5.80;3.37;;;;;;;;;;5049944;28;20452;-62
2021/06/01 04:42:30;;;;;;;4.87;3.50;;;;;;;;;;5049959;28;20455;-63
2021/06/01 04:44:56;;;;;;;5.77;3.70;;;;;;;;;;5049525;28;20506;-62
2021/06/01 04:47:23;;;;;;;4.63;3.53;;;;;;;;;;5049706;28;20483;-63
2021/06/01 04:49:50;;;;;;;5.67;4.00;;;;;;;;;;5049429;28;20498;-60
2021/06/01 04:52:17;;;;;;;7.23;4.10;;;;;;;;;;5049777;28;20448;-62
2021/06/01 04:54:44;;;;;;;6.83;3.83;;;;;;;;;;5049481;28;20440;-62
2021/06/01 04:57:10;;;;;;;6.47;4.00;;;;;;;;;;5049771;28;20444;-62
2021/06/01 04:59:38;;;;;;;4.57;4.10;;;;;;;;;;5049475;28;20449;-59
2021/06/01 05:02:06;;;;;;;6.20;3.90;;;;;;;;;;5049630;28;20453;-62
2021/06/01 05:04:32;;;;;;;4.30;3.90;;;;;;;;;;5049550;28;20447;-60
2021/06/01 05:07:00;;;;;;;5.20;4.10;;;;;;;;;;5048971;28;20483;-61
2021/06/01 05:09:27;;;;;;;4.80;4.30;;;;;;;;;;5049259;28;20542;-61
2021/06/01 05:11:54;;;;;;;9.23;4.03;;;;;;;;;;5049251;28;20450;-60
2021/06/01 05:14:21;;;;;;;5.63;4.10;;;;;;;;;;5049426;28;20482;-62
2021/06/01 05:16:49;;;;;;;5.10;4.30;;;;;;;;;;5048889;28;20974;-61
2021/06/01 05:19:16;;;;;;;6.03;5.23;;;;;;;;;;5037514;28;20436;-62
2021/06/01 05:21:43;;;;;;;5.13;4.63;;;;;;;;;;5035576;28;20444;-62
2021/06/01 05:24:10;;;;;;;6.93;5.80;;;;;;;;;;5051144;22;20499;-60
2021/06/01 05:26:37;;;;;;;8.90;4.87;;;;;;;;;;5035416;28;20857;-60
2021/06/01 05:29:04;;;;;;;8.30;5.40;;;;;;;;;;5036021;28;20503;-60
2021/06/01 05:31:41;;;;;;;6.57;4.60;;;;;;;;;;5035362;28;20453;-58
2021/06/01 05:34:10;;;;;;;7.43;5.50;;;;;;;;;;5035107;28;20988;-58
2021/06/01 05:36:37;;;;;;;7.90;5.13;;;;;;;;;;5035713;28;20481;-57
2021/06/01 05:39:05;;;;;;;6.13;5.03;;;;;;;;;;5035744;28;20823;-55
2021/06/01 05:41:32;;;;;;;8.00;4.80;;;;;;;;;;5035519;28;20449;-59
2021/06/01 05:43:59;;;;;;;6.00;4.93;;;;;;;;;;5034977;28;20470;-58
2021/06/01 05:46:26;;;;;;;7.80;5.70;;;;;;;;;;5035135;28;20479;-56
2021/06/01 05:48:53;;;;;;;5.20;4.70;;;;;;;;;;5035209;28;20456;-57
2021/06/01 05:51:29;;;;;;;7.23;4.20;;;;;;;;;;5035166;28;20449;-57
2021/06/01 05:53:56;;;;;;;12.57;4.63;;;;;;;;;;5034990;28;20478;-58
2021/06/01 05:56:23;;;;;;;6.27;3.90;;;;;;;;;;5036593;28;20444;-60
2021/06/01 05:58:49;;;;;;;8.23;4.47;;;;;;;;;;5036232;28;20457;-60
2021/06/01 06:01:16;;;;;;;4.87;3.90;;;;;;;;;;5035427;28;20503;-59
2021/06/01 06:03:43;;;;;;;8.83;4.23;;;;;;;;;;5034989;28;20479;-59
2021/06/01 06:06:11;;;;;;;6.13;3.80;;;;;;;;;;5034771;28;20511;-60
2021/06/01 06:08:43;;;;;;;12.60;5.93;;;;;;;;;;5035230;28;20456;-60
2021/06/01 06:11:10;;;;;;;8.07;4.57;;;;;;;;;;5034955;28;20435;-60
2021/06/01 06:13:37;;;;;;;4.83;4.03;;;;;;;;;;5034808;28;20471;-60
2021/06/01 06:16:04;;;;;;;6.13;3.70;;;;;;;;;;5035072;28;20438;-60
2021/06/01 06:18:34;;;;;;;4.53;4.03;;;;;;;;;;5034920;28;20447;-59
2021/06/01 06:21:01;;;;;;;5.70;3.80;;;;;;;;;;5034587;28;20454;-60
2021/06/01 06:23:28;;;;;;;4.07;3.57;;;;;;;;;;5034771;28;20473;-59
2021/06/01 06:25:56;;;;;;;4.47;4.03;;;;;;;;;;5035020;28;20456;-60
2021/06/01 06:28:23;;;;;;;4.17;3.60;;;;;;;;;;5034641;28;20471;-60
2021/06/01 06:30:49;;;;;;;6.13;4.03;;;;;;;;;;5035758;28;20506;-59
2021/06/01 06:33:16;;;;;;;4.83;3.60;;;;;;;;;;5059566;22;20496;-61
2021/06/01 06:35:43;;;;;;;5.70;4.60;;;;;;;;;;5034553;28;20414;-60
2021/06/01 06:38:10;;;;;;;5.20;4.00;;;;;;;;;;5034598;28;20443;-61
2021/06/01 06:40:37;;;;;;;4.80;3.83;;;;;;;;;;5034090;28;20439;-60
2021/06/01 06:43:05;;;;;;;6.40;4.17;;;;;;;;;;5034543;28;20522;-60
2021/06/01 06:45:32;;;;;;;5.80;3.37;;;;;;;;;;5034246;28;20453;-61
2021/06/01 06:48:09;;;;;;;6.60;3.93;;;;;;;;;;5033807;28;20526;-62
2021/06/01 06:50:37;;;;;;;10.30;4.43;;;;;;;;;;5034189;28;20433;-61
2021/06/01 06:53:04;;;;;;;4.20;3.23;;;;;;;;;;5033752;28;20456;-61
2021/06/01 06:55:31;;;;;;;7.13;3.67;;;;;;;;;;5034097;28;20442;-61
2021/06/01 06:57:58;;;;;;;7.40;4.17;;;;;;;;;;5049508;22;20509;-58
2021/06/01 07:00:26;;;;;;;7.50;3.60;;;;;;;;;;5034191;28;20434;-57
2021/06/01 07:02:53;;;;;;;4.90;3.50;;;;;;;;;;5034591;28;20812;-59
2021/06/01 07:05:21;;;;;;;7.57;3.70;;;;;;;;;;5058221;22;20844;-64
2021/06/01 07:07:51;;;;;;;4.10;3.13;;;;;;;;;;5034030;28;20481;-63
2021/06/01 07:10:18;;;;;;;4.10;2.83;;;;;;;;;;5033479;28;20485;-64
2021/06/01 07:12:45;;;;;;;5.20;3.57;;;;;;;;;;5033454;28;20455;-61
2021/06/01 07:15:14;;;;;;;4.83;2.90;;;;;;;;;;5033834;28;20986;-62
2021/06/01 07:20:16;;;;;;;6.47;3.47;;;;;;;;;;5050426;22;20820;-57
2021/06/01 07:22:43;;;;;;;7.37;3.43;;;;;;;;;;5033369;28;20460;-59
2021/06/01 07:25:11;;;;;;;5.70;3.53;;;;;;;;;;5033271;28;20946;-59
2021/06/01 07:27:37;;;;;;;7.00;4.17;;;;;;;;;;5033369;28;20491;-59
2021/06/01 07:30:04;;;;;;;6.30;4.07;;;;;;;;;;5033267;28;20463;-58
2021/06/01 07:32:31;;;;;;;8.20;3.70;;;;;;;;;;5033286;28;20440;-60
2021/06/01 07:35:01;;;;;;;5.13;3.20;;;;;;;;;;5033105;28;20533;-59
2021/06/01 07:37:29;;;;;;;4.23;2.93;;;;;;;;;;5032960;28;20456;-58
2021/06/01 07:39:56;;;;;;;4.37;3.27;;;;;;;;;;5032641;28;20469;-61
2021/06/01 07:42:23;;;;;;;2.93;2.70;;;;;;;;;;5032934;28;20449;-59
2021/06/01 07:44:49;;;;;;;5.07;3.50;;;;;;;;;;5032940;28;20509;-59
2021/06/01 07:47:16;;;;;;;8.47;3.53;;;;;;;;;;5033063;28;20473;-59
2021/06/01 07:52:09;;;;;;;5.77;3.87;;;;;;;;;;5049761;22;20575;-61
2021/06/01 07:54:37;;;;;;;3.10;2.80;;;;;;;;;;5032605;28;20440;-62
2021/06/01 07:57:05;;;;;;;6.67;3.27;;;;;;;;;;5034465;28;20463;-62
2021/06/01 07:59:32;;;;;;;2.90;2.70;;;;;;;;;;5035585;28;20448;-62
2021/06/01 08:01:59;;;;;;;5.80;2.70;;;;;;;;;;5033116;28;20474;-63
2021/06/01 08:04:25;;;;;;;4.70;3.00;;;;;;;;;;5032875;28;20502;-62
2021/06/01 08:06:52;;;;;;;5.63;3.70;;;;;;;;;;5032197;28;20487;-61
2021/06/01 08:09:19;;;;;;;4.73;3.40;;;;;;;;;;5032454;28;20951;-61
2021/06/01 08:11:47;;;;;;;4.00;3.33;;;;;;;;;;5032189;28;20484;-66
2021/06/01 08:14:14;;;;;;;4.93;3.17;;;;;;;;;;5032473;28;20453;-62
2021/06/01 08:16:44;;;;;;;5.20;3.90;;;;;;;;;;5032556;28;20471;-63
2021/06/01 08:19:13;;;;;;;3.93;3.50;;;;;;;;;;5033471;28;20504;-60
2021/06/01 08:21:48;;;;;;;4.40;3.60;;;;;;;;;;5033005;28;20526;-60
2021/06/01 08:24:16;;;;;;;4.77;3.10;;;;;;;;;;5032970;28;20612;-62
2021/06/01 08:26:43;;;;;;;7.00;3.70;;;;;;;;;;5032434;28;20515;-59
2021/06/01 08:29:13;;;;;;;8.73;3.87;;;;;;;;;;5032424;28;20444;-60
2021/06/01 08:31:40;;;;;;;4.30;3.57;;;;;;;;;;5032362;28;20780;-60
2021/06/01 08:34:07;;;;;;;6.50;3.47;;;;;;;;;;5033030;28;20932;-59
2021/06/01 08:36:34;;;;;;;4.60;3.63;;;;;;;;;;5033478;28;20498;-61
2021/06/01 08:39:00;;;;;;;4.90;4.10;;;;;;;;;;5079188;22;21071;-58
2021/06/01 08:41:27;;;;;;;4.23;3.83;;;;;;;;;;5032466;28;20449;-60
2021/06/01 08:43:54;;;;;;;6.73;3.70;;;;;;;;;;5032551;28;20455;-58
2021/06/01 08:46:24;;;;;;;3.83;3.50;;;;;;;;;;5032738;28;20455;-56
2021/06/01 08:48:52;;;;;;;5.17;3.70;;;;;;;;;;5033208;28;20501;-57
2021/06/01 08:51:20;;;;;;;4.40;4.10;;;;;;;;;;5033441;28;20532;-57
2021/06/01 08:53:48;;;;;;;4.47;3.90;;;;;;;;;;5035517;28;20446;-58
2021/06/01 08:56:14;;;;;;;5.83;4.60;;;;;;;;;;5036788;28;20449;-59
2021/06/01 08:58:42;;;;;;;4.37;3.23;;;;;;;;;;5036293;28;20826;-58
2021/06/01 09:01:09;;;;;;;4.90;4.43;;;;;;;;;;5036026;28;20453;-58
2021/06/01 09:03:39;;;;;;;5.37;4.63;;;;;;;;;;5036194;28;20822;-59
2021/06/01 09:06:14;;;;;;;5.47;3.90;;;;;;;;;;5036181;28;20451;-56
2021/06/01 09:08:49;;;;;;;7.53;3.90;;;;;;;;;;5037564;28;20514;-56
2021/06/01 09:11:29;;;;;;;8.57;4.60;;;;;;;;;;5036171;28;20517;-57
2021/06/01 09:14:22;;;;;;;5.57;3.60;;;;;;;;;;5037206;28;20435;-56
2021/06/01 09:20:57;;;;;;;8.10;4.67;;;;;;;;;;5035865;28;20523;-58
2021/06/01 09:22:50;;;;;;;11.57;4.90;;;;;;;;;;5035544;28;20526;-57
2021/06/01 09:25:20;;;;;;;6.23;4.10;;;;;;;;;;5036062;28;20442;-59
2021/06/01 09:27:47;;;;;;;10.90;6.37;;;;;;;;;;5035751;28;20482;-58
2021/06/01 09:30:29;;;;;;;11.80;4.97;;;;;;;;;;5035782;28;20462;-59
2021/06/01 09:32:55;;;;;;;11.20;5.00;;;;;;;;;;5035108;28;20529;-59
2021/06/01 09:35:40;;;;;;;9.30;5.43;;;;;;;;;;5035297;28;20441;-59
2021/06/01 09:38:07;;;;;;;7.90;4.90;;;;;;;;;;5035360;28;20447;-57
2021/06/01 09:40:33;;;;;;;8.47;4.87;;;;;;;;;;5035876;28;20476;-58
2021/06/01 09:43:00;;;;;;;9.77;4.83;;;;;;;;;;5035423;28;20446;-59
2021/06/01 09:45:27;;;;;;;8.37;4.70;;;;;;;;;;5037225;28;20452;-60
2021/06/01 09:47:55;;;;;;;8.60;4.63;;;;;;;;;;5061307;22;20564;-57
2021/06/01 09:50:28;;;;;;;7.07;4.37;;;;;;;;;;5034694;28;20455;-57
2021/06/01 09:52:59;;;;;;;8.37;5.00;;;;;;;;;;5035452;28;20495;-59
2021/06/01 09:55:29;;;;;;;6.87;4.43;;;;;;;;;;5034976;28;20469;-58
2021/06/01 09:57:56;;;;;;;7.03;4.17;;;;;;;;;;5035237;28;20475;-60
2021/06/01 10:00:25;;;;;;;4.70;3.73;;;;;;;;;;5034739;28;20596;-57
2021/06/01 10:02:53;;;;;;;4.97;4.13;;;;;;;;;;5034809;28;20443;-57
2021/06/01 10:05:21;;;;;;;6.00;4.70;;;;;;;;;;5034705;28;20456;-57
2021/06/01 10:07:49;;;;;;;4.10;3.70;;;;;;;;;;5035122;28;20493;-59
2021/06/01 10:10:18;;;;;;;5.37;3.67;;;;;;;;;;5034883;28;20475;-61
2021/06/01 10:12:46;;;;;;;5.43;3.93;;;;;;;;;;5034611;28;20446;-58
2021/06/01 10:15:14;;;;;;;7.60;4.50;;;;;;;;;;5035207;28;20451;-59
2021/06/01 10:17:41;;;;;;;10.00;4.80;;;;;;;;;;5034644;28;20447;-59
2021/06/01 10:20:08;;;;;;;4.40;3.80;;;;;;;;;;5067595;22;20464;-58
2021/06/01 10:22:35;;;;;;;3.97;3.57;;;;;;;;;;5034849;28;20519;-57
2021/06/01 10:25:02;;;;;;;5.87;4.30;;;;;;;;;;5059815;22;20588;-58
2021/06/01 10:27:31;;;;;;;6.50;5.03;;;;;;;;;;5034765;28;20481;-60
2021/06/01 10:29:57;;;;;;;5.60;4.30;;;;;;;;;;5034765;28;20454;-59
2021/06/01 10:32:25;;;;;;;9.13;4.53;;;;;;;;;;5034779;28;20445;-59
2021/06/01 10:34:53;;;;;;;8.90;5.27;;;;;;;;;;5034492;28;20465;-58
2021/06/01 10:52:13;;;;;;;5.87;3.67;;;;;;;;;;5036681;22;20578;-59
2021/06/01 10:54:59;;;;;;;4.37;3.97;;;;;;;;;;5036054;28;20519;-60
2021/06/01 10:57:41;;;;;;;10.40;4.27;;;;;;;;;;5034304;28;20441;-60
2021/06/01 11:03:04;;;;;;;5.40;4.23;;;;;;;;;;5033574;28;20513;-60
2021/06/01 11:05:40;;;;;;;6.00;4.63;;;;;;;;;;5033951;28;20438;-60
2021/06/01 11:08:12;;;;;;;4.27;3.70;;;;;;;;;;5034343;28;20504;-59
2021/06/01 11:10:40;;;;;;;5.43;3.40;;;;;;;;;;5033774;28;20442;-58
2021/06/01 11:13:08;;;;;;;6.20;4.20;;;;;;;;;;5033305;28;20840;-59
2021/06/01 11:15:37;;;;;;;4.57;3.60;;;;;;;;;;5032850;28;20442;-59
2021/06/01 11:18:22;;;;;;;12.70;4.33;;;;;;;;;;5033252;28;20442;-57
2021/06/01 11:21:11;;;;;;;4.43;3.60;;;;;;;;;;5033177;28;20434;-59
2021/06/01 11:24:01;;;;;;;4.93;3.80;;;;;;;;;;5033157;28;20471;-58
2021/06/01 11:34:43;;;;;;;5.50;3.60;;;;;;;;;;5069296;22;20509;-62
2021/06/01 11:37:17;;;;;;;3.80;3.30;;;;;;;;;;5033456;28;20470;-60
2021/06/01 11:39:55;;;;;;;5.57;3.87;;;;;;;;;;5033333;28;20431;-61
2021/06/01 11:45:08;;;;;;;3.60;3.23;;;;;;;;;;5033008;28;20493;-60
2021/06/01 11:47:53;;;;;;;5.27;3.80;;;;;;;;;;5033323;28;20487;-60
2021/06/01 11:53:06;;;;;;;4.83;3.90;;;;;;;;;;5033463;28;20891;-61
2021/06/01 11:55:33;;;;;;;4.30;3.50;;;;;;;;;;5057888;22;20496;-60
2021/06/01 12:03:54;;;;;;;5.07;3.97;;;;;;;;;;5032742;28;20483;-62
2021/06/01 12:12:03;;;;;;;3.83;3.53;;;;;;;;;;5032981;28;20404;-59
2021/06/01 12:17:20;;;;;;;4.90;3.60;;;;;;;;;;5032337;28;20497;-60
2021/06/01 12:19:47;;;;;;;4.57;3.93;;;;;;;;;;5032796;28;20554;-61
2021/06/01 12:22:15;;;;;;;4.43;4.00;;;;;;;;;;5034003;28;20455;-62
2021/06/01 12:24:42;;;;;;;3.90;3.60;;;;;;;;;;5032503;28;20521;-60
2021/06/01 12:27:23;;;;;;;3.90;3.50;;;;;;;;;;5032978;28;20649;-59
2021/06/01 12:32:35;;;;;;;4.23;3.83;;;;;;;;;;5036728;28;20575;-59
2021/06/01 12:35:12;;;;;;;3.90;3.30;;;;;;;;;;5036260;28;20454;-59
2021/06/01 12:43:29;;;;;;;4.43;3.67;;;;;;;;;;5051783;22;20393;-61
2021/06/01 13:06:42;;;;;;;5.83;4.87;;;;;;;;;;4979626;28;20426;-61
2021/06/01 13:12:11;;;;;;;4.80;4.00;;;;;;;;;;5003191;28;20436;-60
2021/06/01 13:20:03;;;;;;;6.43;4.43;;;;;;;;;;5050878;22;20580;-60
2021/06/01 13:22:40;;;;;;;4.83;4.33;;;;;;;;;;5035435;28;20505;-59
2021/06/01 13:31:07;;;;;;;8.20;4.80;;;;;;;;;;5035364;28;20480;-59
2021/06/01 13:36:41;;;;;;;5.10;4.10;;;;;;;;;;5035986;28;20477;-61
2021/06/01 13:39:18;;;;;;;9.47;4.73;;;;;;;;;;5034875;28;20817;-61
2021/06/01 13:47:20;;;;;;;7.63;4.70;;;;;;;;;;5035057;28;20458;-61
2021/06/01 13:52:33;;;;;;;5.23;4.47;;;;;;;;;;5053846;28;21034;-61
2021/06/01 13:55:08;;;;;;;7.20;4.93;;;;;;;;;;5079625;22;20986;-61
2021/06/01 13:57:40;;;;;;;4.97;4.50;;;;;;;;;;5054832;28;20441;-60
2021/06/01 14:00:20;;;;;;;6.97;4.67;;;;;;;;;;5054694;28;20530;-61
2021/06/01 14:30:58;;;;;;;6.07;5.47;;;;;;;;;;5014243;28;20431;-58
2021/06/01 14:36:22;;;;;;;5.73;5.23;;;;;;;;;;5053793;28;20455;-59
2021/06/01 14:39:11;;;;;;;4.80;4.23;;;;;;;;;;5054284;28;20454;-61
2021/06/01 15:29:02;;;;;;;5.30;4.67;;;;;;;;;;5053032;28;20997;-61
2021/06/01 15:31:45;;;;;;;5.73;4.47;;;;;;;;;;5053443;28;20429;-60
2021/06/01 15:51:03;;;;;;;4.67;4.27;;;;;;;;;;5049355;28;20492;-61
2021/06/01 15:53:42;;;;;;;4.83;4.50;;;;;;;;;;5053036;28;20426;-60
2021/06/01 16:13:09;;;;;;;5.40;4.90;;;;;;;;;;5027702;28;20508;-60
2021/06/01 16:21:29;;;;;;;6.03;5.53;;;;;;;;;;4993176;28;20848;-60
2021/06/01 16:29:42;;;;;;;5.47;4.40;;;;;;;;;;5052509;28;20527;-59
2021/06/01 16:32:21;;;;;;;5.70;5.10;;;;;;;;;;5052375;28;20431;-59
2021/06/01 16:43:26;;;;;;;5.20;4.80;;;;;;;;;;5052807;28;20399;-59
2021/06/01 17:05:19;;;;;;;5.33;4.50;;;;;;;;;;5053808;28;20404;-59
2021/06/01 17:08:04;;;;;;;4.70;4.30;;;;;;;;;;5052692;28;20476;-60
2021/06/01 17:13:17;;;;;;;7.03;6.43;;;;;;;;;;5052764;28;20772;-59
2021/06/01 17:15:45;;;;;;;5.53;5.03;;;;;;;;;;5055804;28;20454;-60
2021/06/01 17:18:17;;;;;;;5.93;4.80;;;;;;;;;;5082797;22;21234;-61
2021/06/01 17:21:14;;;;;;;5.90;4.70;;;;;;;;;;5075468;28;20451;-61
2021/06/01 17:32:17;;;;;;;6.20;4.37;;;;;;;;;;5075957;28;20505;-60
2021/06/01 17:34:48;;;;;;;6.83;5.10;;;;;;;;;;5099863;22;20509;-59
2021/06/01 17:37:15;;;;;;;6.53;4.80;;;;;;;;;;5055381;28;20829;-59
2021/06/01 17:39:43;;;;;;;5.40;4.90;;;;;;;;;;5055457;28;20478;-59
2021/06/01 17:42:11;;;;;;;5.63;4.73;;;;;;;;;;5055230;28;20447;-60
2021/06/01 17:44:39;;;;;;;7.47;6.60;;;;;;;;;;5055372;28;20897;-59
2021/06/01 17:47:08;;;;;;;14.03;12.73;;;;;;;;;;5055224;28;20796;-59
2021/06/01 17:49:35;;;;;;;23.30;20.90;;;;;;;;;;5056835;28;20541;-59
2021/06/01 17:52:03;;;;;;;24.20;21.60;;;;;;;;;;5055456;28;20811;-59
2021/06/01 17:54:31;;;;;;;19.47;17.50;;;;;;;;;;5079262;22;20616;-60
2021/06/01 17:56:59;;;;;;;7.10;6.00;;;;;;;;;;5054705;28;20443;-60
2021/06/01 17:59:27;;;;;;;6.20;5.70;;;;;;;;;;5054783;28;20438;-60
2021/06/01 18:01:54;;;;;;;5.20;4.60;;;;;;;;;;5054769;28;20521;-61
2021/06/01 18:04:23;;;;;;;6.73;5.30;;;;;;;;;;5054658;28;21009;-60
2021/06/01 18:06:53;;;;;;;5.20;4.70;;;;;;;;;;5079531;22;20494;-58
2021/06/01 18:09:41;;;;;;;7.10;5.27;;;;;;;;;;5055169;28;20477;-58
2021/06/01 18:12:33;;;;;;;5.30;4.90;;;;;;;;;;5055089;28;20455;-56
2021/06/01 18:29:41;;;;;;;5.83;4.37;;;;;;;;;;5056239;28;20465;-57
2021/06/01 18:37:56;;;;;;;4.40;4.07;;;;;;;;;;5054073;28;20456;-58
2021/06/01 18:43:26;;;;;;;9.93;8.83;;;;;;;;;;5054308;28;20951;-58
2021/06/01 18:52:15;;;;;;;9.67;5.30;;;;;;;;;;5054562;28;20450;-59
2021/06/01 19:00:24;;;;;;;4.87;4.47;;;;;;;;;;5070703;22;20391;-57
2021/06/01 19:25:15;;;;;;;7.63;5.80;;;;;;;;;;5077021;22;20479;-60
2021/06/01 19:49:59;;;;;;;7.80;7.00;;;;;;;;;;5053101;28;20436;-61
2021/06/01 19:52:26;;;;;;;5.40;4.27;;;;;;;;;;5054043;28;20540;-62
2021/06/01 19:54:54;;;;;;;5.33;4.67;;;;;;;;;;5077632;22;20463;-60
2021/06/01 19:57:22;;;;;;;5.63;4.77;;;;;;;;;;5053033;28;20804;-59
2021/06/01 19:59:50;;;;;;;8.07;5.80;;;;;;;;;;5053238;28;20842;-59
2021/06/01 20:02:18;;;;;;;8.37;6.97;;;;;;;;;;5052935;28;20448;-59
2021/06/01 20:04:46;;;;;;;6.00;4.87;;;;;;;;;;5052869;28;20456;-59
2021/06/01 20:07:14;;;;;;;13.10;5.50;;;;;;;;;;5033017;28;20931;-59
2021/06/01 20:09:42;;;;;;;5.37;4.87;;;;;;;;;;5067696;22;20497;-59
2021/06/01 20:12:09;;;;;;;7.13;6.43;;;;;;;;;;5052853;28;20439;-61
2021/06/01 20:14:36;;;;;;;7.23;6.53;;;;;;;;;;5052790;28;20445;-62
2021/06/01 20:17:04;;;;;;;6.73;5.30;;;;;;;;;;5052939;28;20440;-62
2021/06/01 20:19:32;;;;;;;5.47;4.90;;;;;;;;;;5077541;22;20488;-60
2021/06/01 20:22:00;;;;;;;5.43;4.60;;;;;;;;;;5053031;28;20467;-58
2021/06/01 20:24:29;;;;;;;5.20;4.70;;;;;;;;;;5052904;28;20445;-58
2021/06/01 20:26:57;;;;;;;5.67;4.57;;;;;;;;;;5052658;28;20439;-58
2021/06/01 20:29:30;;;;;;;6.13;5.63;;;;;;;;;;5052911;28;20886;-58
2021/06/01 20:33:06;;;;;;;5.97;5.00;;;;;;;;;;5052687;28;20428;-58
2021/06/01 20:34:44;;;;;;;5.97;5.23;;;;;;;;;;5052521;28;20447;-58
2021/06/01 20:37:12;;;;;;;6.17;4.53;;;;;;;;;;5052898;28;20432;-58
2021/06/01 20:39:42;;;;;;;4.87;4.43;;;;;;;;;;5052636;28;20460;-59
2021/06/01 20:42:09;;;;;;;5.10;4.37;;;;;;;;;;5052782;28;20483;-59
2021/06/01 20:44:36;;;;;;;5.00;4.50;;;;;;;;;;5052809;28;20456;-59
2021/06/01 20:47:04;;;;;;;6.30;4.80;;;;;;;;;;5053264;28;20447;-59
2021/06/01 20:49:31;;;;;;;4.77;4.10;;;;;;;;;;5053998;28;20483;-59
2021/06/01 20:51:58;;;;;;;4.63;4.00;;;;;;;;;;5056616;28;20455;-59